createdAt,value
2022-11-01T00:01:36.369Z,100321.88
2022-11-01T00:04:03.959Z,100308.00
2022-11-01T00:06:31.414Z,100318.59
2022-11-01T00:08:59.220Z,100309.50
2022-11-01T00:11:28.034Z,100291.66
2022-11-01T00:13:55.491Z,100308.19
2022-11-01T00:16:23.000Z,100311.09
2022-11-01T00:18:50.546Z,100302.38
2022-11-01T00:21:18.098Z,100307.59
2022-11-01T00:23:45.715Z,100297.00
2022-11-01T00:26:15.518Z,100309.25
2022-11-01T00:28:44.388Z,100298.50
2022-11-01T00:31:12.844Z,100303.94
2022-11-01T00:33:40.531Z,100303.19
2022-11-01T00:36:08.371Z,100297.00
2022-11-01T00:38:35.955Z,100304.47
2022-11-01T00:41:04.098Z,100306.75
2022-11-01T00:43:31.940Z,100282.22
2022-11-01T00:46:00.939Z,100297.47
2022-11-01T00:48:28.558Z,100295.34
2022-11-01T00:50:56.015Z,100286.72
2022-11-01T00:53:23.619Z,100283.38
2022-11-01T00:55:51.095Z,100276.34
2022-11-01T00:58:18.591Z,100272.63
2022-11-01T01:00:46.147Z,100286.25
2022-11-01T01:03:15.075Z,100266.97
2022-11-01T01:05:42.526Z,100275.50
2022-11-01T01:08:10.021Z,100267.34
2022-11-01T01:10:37.456Z,100277.09
2022-11-01T01:13:05.167Z,100274.25
2022-11-01T01:15:32.799Z,100256.38
2022-11-01T01:18:00.684Z,100267.50
2022-11-01T01:20:29.699Z,100243.69
2022-11-01T01:22:57.253Z,100249.25
2022-11-01T01:25:24.884Z,100259.94
2022-11-01T01:27:52.369Z,100250.13
2022-11-01T01:30:20.102Z,100240.03
2022-11-01T01:32:47.546Z,100239.63
2022-11-01T01:35:15.011Z,100227.34
2022-11-01T01:37:43.847Z,100237.47
2022-11-01T01:40:11.510Z,100234.69
2022-11-01T01:42:39.762Z,100226.91
2022-11-01T01:45:21.551Z,100238.38
2022-11-01T01:47:50.563Z,100215.34
2022-11-01T01:50:19.372Z,100221.41
2022-11-01T01:52:49.919Z,100228.97
2022-11-01T01:55:17.669Z,100202.41
2022-11-01T01:57:45.138Z,100191.56
2022-11-01T02:00:13.287Z,100185.34
2022-11-01T02:02:40.775Z,100187.97
2022-11-01T02:05:09.454Z,100180.34
2022-11-01T02:07:36.956Z,100179.75
2022-11-01T02:10:06.311Z,100186.19
2022-11-01T02:12:34.852Z,100188.00
2022-11-01T02:15:02.333Z,100171.41
2022-11-01T02:17:30.611Z,100186.03
2022-11-01T02:20:19.195Z,100175.38
2022-11-01T02:22:51.652Z,100170.06
2022-11-01T02:25:23.969Z,100165.28
2022-11-01T02:28:00.243Z,100166.97
2022-11-01T02:30:27.844Z,100171.72
2022-11-01T02:33:05.536Z,100172.00
2022-11-01T02:35:38.153Z,100158.53
2022-11-01T02:38:07.982Z,100156.16
2022-11-01T02:40:36.780Z,100163.41
2022-11-01T02:43:05.719Z,100163.56
2022-11-01T02:45:34.615Z,100147.91
2022-11-01T02:48:02.678Z,100157.97
2022-11-01T02:50:33.358Z,100169.66
2022-11-01T02:53:01.126Z,100153.03
2022-11-01T02:55:31.770Z,100152.78
2022-11-01T02:58:00.232Z,100158.88
2022-11-01T03:00:29.218Z,100138.75
2022-11-01T03:02:57.718Z,100144.78
2022-11-01T03:05:26.423Z,100142.53
2022-11-01T03:07:56.699Z,100156.81
2022-11-01T03:10:24.351Z,100162.53
2022-11-01T03:12:53.264Z,100161.00
2022-11-01T03:15:21.820Z,100165.75
2022-11-01T03:17:50.356Z,100160.31
2022-11-01T03:20:18.821Z,100167.59
2022-11-01T03:22:47.229Z,100169.19
2022-11-01T03:25:30.553Z,100171.88
2022-11-01T03:27:58.167Z,100159.28
2022-11-01T03:30:25.783Z,100155.84
2022-11-01T03:32:54.373Z,100167.59
2022-11-01T03:35:23.347Z,100150.94
2022-11-01T03:37:51.023Z,100151.25
2022-11-01T03:40:19.876Z,100138.75
2022-11-01T03:42:48.309Z,100154.88
2022-11-01T03:45:15.891Z,100146.19
2022-11-01T03:47:43.370Z,100142.25
2022-11-01T03:50:17.168Z,100173.34
2022-11-01T03:52:44.674Z,100156.00
2022-11-01T03:55:19.006Z,100156.41
2022-11-01T03:57:48.295Z,100156.19
2022-11-01T04:00:16.398Z,100164.84
2022-11-01T04:02:44.111Z,100160.50
2022-11-01T04:05:11.826Z,100159.25
2022-11-01T04:07:39.258Z,100146.66
2022-11-01T04:10:07.224Z,100170.47
2022-11-01T04:12:34.670Z,100173.97
2022-11-01T04:15:21.060Z,100171.41
2022-11-01T04:18:05.844Z,100178.72
2022-11-01T04:20:36.258Z,100178.19
2022-11-01T04:23:04.581Z,100161.19
2022-11-01T04:25:32.779Z,100171.16
2022-11-01T04:28:00.341Z,100178.88
2022-11-01T04:30:29.639Z,100170.56
2022-11-01T04:32:57.110Z,100174.09
2022-11-01T04:35:24.666Z,100186.44
2022-11-01T04:37:56.667Z,100169.22
2022-11-01T04:40:24.203Z,100178.59
2022-11-01T04:42:53.071Z,100190.78
2022-11-01T04:45:20.546Z,100190.22
2022-11-01T04:47:52.460Z,100190.22
2022-11-01T04:50:20.915Z,100195.16
2022-11-01T04:52:48.594Z,100193.47
2022-11-01T04:55:16.148Z,100199.09
2022-11-01T04:57:43.778Z,100208.91
2022-11-01T05:00:12.308Z,100198.66
2022-11-01T05:02:39.984Z,100217.88
2022-11-01T05:05:09.701Z,100201.88
2022-11-01T05:07:37.308Z,100214.91
2022-11-01T05:10:05.528Z,100225.19
2022-11-01T05:12:33.138Z,100207.78
2022-11-01T05:15:00.640Z,100221.66
2022-11-01T05:17:28.280Z,100222.22
2022-11-01T05:19:55.746Z,100222.81
2022-11-01T05:22:24.741Z,100210.44
2022-11-01T05:24:52.967Z,100230.34
2022-11-01T05:27:20.670Z,100234.00
2022-11-01T05:29:48.329Z,100232.59
2022-11-01T05:32:15.944Z,100241.56
2022-11-01T05:34:43.585Z,100250.56
2022-11-01T05:37:11.503Z,100227.81
2022-11-01T05:39:40.527Z,100246.34
2022-11-01T05:42:08.312Z,100257.84
2022-11-01T05:44:35.950Z,100268.22
2022-11-01T05:47:04.690Z,100261.47
2022-11-01T05:49:32.362Z,100273.81
2022-11-01T05:52:00.044Z,100268.56
2022-11-01T05:54:27.703Z,100263.94
2022-11-01T05:56:56.688Z,100268.66
2022-11-01T05:59:24.323Z,100280.28
2022-11-01T06:01:52.061Z,100263.75
2022-11-01T06:04:19.766Z,100282.56
2022-11-01T06:06:47.408Z,100295.47
2022-11-01T06:09:15.051Z,100302.47
2022-11-01T06:11:42.671Z,100321.63
2022-11-01T06:14:13.009Z,100309.13
2022-11-01T06:16:40.692Z,100312.84
2022-11-01T06:19:09.538Z,100316.31
2022-11-01T06:21:38.177Z,100315.00
2022-11-01T06:24:06.351Z,100330.06
2022-11-01T06:26:33.997Z,100338.06
2022-11-01T06:29:02.000Z,100343.72
2022-11-01T06:31:31.045Z,100326.09
2022-11-01T06:33:58.723Z,100348.44
2022-11-01T06:36:26.431Z,100346.28
2022-11-01T06:38:54.074Z,100333.81
2022-11-01T06:41:21.747Z,100355.63
2022-11-01T06:43:49.594Z,100351.56
2022-11-01T06:46:17.250Z,100358.94
2022-11-01T06:48:48.394Z,100383.13
2022-11-01T06:51:16.027Z,100380.28
2022-11-01T06:53:43.771Z,100394.25
2022-11-01T06:56:11.399Z,100395.84
2022-11-01T06:58:39.056Z,100391.28
2022-11-01T07:01:06.829Z,100393.69
2022-11-01T07:03:34.593Z,100388.16
2022-11-01T07:06:03.871Z,100382.94
2022-11-01T07:08:31.507Z,100391.25
2022-11-01T07:10:59.426Z,100392.28
2022-11-01T07:13:28.911Z,100396.69
2022-11-01T07:15:56.605Z,100406.72
2022-11-01T07:18:24.242Z,100416.53
2022-11-01T07:20:51.904Z,100402.69
2022-11-01T07:23:21.008Z,100421.00
2022-11-01T07:25:52.130Z,100437.66
2022-11-01T07:28:19.775Z,100446.09
2022-11-01T07:30:48.635Z,100444.41
2022-11-01T07:33:16.290Z,100449.19
2022-11-01T07:35:43.924Z,100448.44
2022-11-01T07:38:13.354Z,100452.59
2022-11-01T07:40:42.865Z,100455.69
2022-11-01T07:43:10.767Z,100442.34
2022-11-01T07:45:38.649Z,100444.16
2022-11-01T07:48:10.034Z,100454.31
2022-11-01T07:50:38.655Z,100456.97
2022-11-01T07:53:07.952Z,100454.66
2022-11-01T07:55:35.616Z,100458.91
2022-11-01T07:58:05.331Z,100463.72
2022-11-01T08:03:08.669Z,100462.19
2022-11-01T08:05:36.727Z,100493.66
2022-11-01T08:08:05.754Z,100476.47
2022-11-01T08:10:34.400Z,100483.03
2022-11-01T08:13:04.856Z,100487.38
2022-11-01T08:15:32.810Z,100497.53
2022-11-01T08:18:01.236Z,100489.44
2022-11-01T08:20:29.958Z,100492.13
2022-11-01T08:22:57.863Z,100492.22
2022-11-01T08:25:26.229Z,100504.75
2022-11-01T08:27:53.854Z,100520.00
2022-11-01T08:30:22.916Z,100521.91
2022-11-01T08:32:50.532Z,100507.91
2022-11-01T08:35:18.313Z,100519.63
2022-11-01T08:37:50.157Z,100503.56
2022-11-01T08:40:17.987Z,100516.47
2022-11-01T08:42:45.771Z,100538.34
2022-11-01T08:45:13.832Z,100518.75
2022-11-01T08:47:43.139Z,100536.50
2022-11-01T08:50:12.808Z,100555.75
2022-11-01T08:52:40.487Z,100550.28
2022-11-01T08:55:09.397Z,100556.69
2022-11-01T08:57:37.104Z,100564.19
2022-11-01T09:00:06.939Z,100560.16
2022-11-01T09:02:34.778Z,100530.25
2022-11-01T09:05:06.135Z,100574.25
2022-11-01T09:07:34.696Z,100563.97
2022-11-01T09:10:02.377Z,100561.91
2022-11-01T09:12:30.115Z,100557.88
2022-11-01T09:14:57.803Z,100574.19
2022-11-01T09:17:25.479Z,100590.78
2022-11-01T09:19:53.151Z,100581.25
2022-11-01T09:22:22.284Z,100577.13
2022-11-01T09:24:49.945Z,100567.53
2022-11-01T09:27:17.598Z,100595.16
2022-11-01T09:29:47.940Z,100586.66
2022-11-01T09:32:18.706Z,100595.38
2022-11-01T09:34:48.914Z,100600.94
2022-11-01T09:37:16.885Z,100602.50
2022-11-01T09:39:45.881Z,100593.69
2022-11-01T09:42:20.612Z,100600.81
2022-11-01T09:44:49.477Z,100602.53
2022-11-01T09:47:20.210Z,100614.00
2022-11-01T09:49:49.925Z,100618.44
2022-11-01T09:52:20.824Z,100601.94
2022-11-01T09:54:49.911Z,100638.63
2022-11-01T09:57:21.913Z,100616.03
2022-11-01T09:59:59.076Z,100606.88
2022-11-01T10:02:43.602Z,100640.66
2022-11-01T10:05:22.488Z,100630.19
2022-11-01T10:07:59.819Z,100639.59
2022-11-01T10:10:36.798Z,100636.28
2022-11-01T10:13:16.315Z,100650.81
2022-11-01T10:15:53.406Z,100649.78
2022-11-01T10:18:28.124Z,100648.59
2022-11-01T10:20:57.536Z,100647.22
2022-11-01T10:23:34.452Z,100648.22
2022-11-01T10:26:04.293Z,100648.69
2022-11-01T10:28:39.451Z,100674.06
2022-11-01T10:31:12.978Z,100669.97
2022-11-01T10:33:42.792Z,100665.25
2022-11-01T10:36:14.662Z,100682.56
2022-11-01T10:39:37.270Z,100663.94
2022-11-01T10:41:40.979Z,100673.41
2022-11-01T10:44:12.080Z,100672.25
2022-11-01T10:46:41.245Z,100671.06
2022-11-01T10:49:16.859Z,100677.56
2022-11-01T10:51:44.931Z,100678.56
2022-11-01T10:54:17.116Z,100667.88
2022-11-01T10:56:48.579Z,100669.97
2022-11-01T10:59:18.285Z,100668.50
2022-11-01T11:01:47.118Z,100686.28
2022-11-01T11:04:16.312Z,100679.19
2022-11-01T11:06:44.450Z,100684.09
2022-11-01T11:09:20.336Z,100687.22
2022-11-01T11:11:51.255Z,100685.06
2022-11-01T11:14:20.133Z,100683.88
2022-11-01T11:16:50.267Z,100677.22
2022-11-01T11:19:24.646Z,100684.63
2022-11-01T11:21:54.083Z,100694.19
2022-11-01T11:24:23.583Z,100675.13
2022-11-01T11:26:54.613Z,100682.19
2022-11-01T11:29:34.468Z,100671.94
2022-11-01T11:32:02.767Z,100673.81
2022-11-01T11:34:32.083Z,100681.69
2022-11-01T11:37:00.108Z,100684.09
2022-11-01T11:39:29.023Z,100682.84
2022-11-01T11:42:11.666Z,100695.84
2022-11-01T11:44:41.856Z,100704.59
2022-11-01T11:47:20.038Z,100687.03
2022-11-01T11:49:48.525Z,100711.31
2022-11-01T11:52:18.008Z,100699.88
2022-11-01T11:54:45.923Z,100713.19
2022-11-01T11:57:18.932Z,100716.38
2022-11-01T11:59:47.627Z,100717.69
2022-11-01T12:02:20.894Z,100687.06
2022-11-01T12:04:53.272Z,100697.81
2022-11-01T12:07:25.984Z,100700.09
2022-11-01T12:09:53.725Z,100700.97
2022-11-01T12:12:25.212Z,100676.16
2022-11-01T12:14:53.265Z,100704.84
2022-11-01T12:17:25.800Z,100687.69
2022-11-01T12:19:59.426Z,100700.47
2022-11-01T12:22:28.933Z,100722.31
2022-11-01T12:24:58.812Z,100691.16
2022-11-01T12:27:30.090Z,100702.69
2022-11-01T12:30:02.720Z,100698.50
2022-11-01T12:32:33.782Z,100693.75
2022-11-01T12:35:05.794Z,100710.63
2022-11-01T12:37:48.542Z,100708.13
2022-11-01T12:40:19.799Z,100695.13
2022-11-01T12:42:51.603Z,100711.47
2022-11-01T12:45:24.931Z,100712.66
2022-11-01T12:47:56.578Z,100722.69
2022-11-01T12:50:26.076Z,100704.97
2022-11-01T12:52:57.440Z,100715.72
2022-11-01T12:55:31.127Z,100705.31
2022-11-01T12:58:00.221Z,100702.88
2022-11-01T13:00:32.515Z,100707.88
2022-11-01T13:03:10.447Z,100704.63
2022-11-01T13:05:46.898Z,100707.47
2022-11-01T13:08:21.104Z,100709.53
2022-11-01T13:10:49.365Z,100702.53
2022-11-01T13:13:22.583Z,100724.28
2022-11-01T13:15:57.685Z,100728.88
2022-11-01T13:18:33.889Z,100724.00
2022-11-01T13:21:07.234Z,100737.25
2022-11-01T13:23:37.857Z,100711.25
2022-11-01T13:26:08.794Z,100725.09
2022-11-01T13:28:50.891Z,100729.06
2022-11-01T13:31:25.515Z,100712.91
2022-11-01T13:33:58.633Z,100719.84
2022-11-01T13:36:31.287Z,100715.94
2022-11-01T13:39:01.994Z,100725.91
2022-11-01T13:41:34.921Z,100721.44
2022-11-01T13:44:07.241Z,100698.19
2022-11-01T13:46:46.286Z,100721.09
2022-11-01T13:49:41.240Z,100712.50
2022-11-01T13:52:10.769Z,100712.75
2022-11-01T13:54:40.726Z,100694.78
2022-11-01T13:57:13.249Z,100702.09
2022-11-01T13:59:54.095Z,100717.75
2022-11-01T14:02:53.836Z,100709.69
2022-11-01T14:05:21.655Z,100697.66
2022-11-01T14:08:35.162Z,100726.16
2022-11-01T14:11:02.819Z,100714.94
2022-11-01T14:13:36.342Z,100687.91
2022-11-01T14:16:21.295Z,100714.56
2022-11-01T14:19:21.976Z,100715.25
2022-11-01T14:21:53.341Z,100713.88
2022-11-01T14:24:35.136Z,100706.78
2022-11-01T14:27:08.931Z,100710.03
2022-11-01T14:29:37.314Z,100725.00
2022-11-01T14:32:07.055Z,100709.13
2022-11-01T14:34:36.376Z,100694.16
2022-11-01T14:37:11.020Z,100699.75
2022-11-01T14:39:41.950Z,100696.31
2022-11-01T14:42:12.338Z,100682.13
2022-11-01T14:44:45.522Z,100701.09
2022-11-01T14:47:23.940Z,100703.50
2022-11-01T14:49:56.204Z,100705.78
2022-11-01T14:52:31.057Z,100686.03
2022-11-01T14:55:04.827Z,100706.31
2022-11-01T14:57:34.822Z,100700.78
2022-11-01T15:00:22.972Z,100715.03
2022-11-01T15:02:52.230Z,100709.50
2022-11-01T15:05:20.077Z,100712.91
2022-11-01T15:07:52.045Z,100720.50
2022-11-01T15:10:19.865Z,100727.03
2022-11-01T15:12:49.151Z,100708.63
2022-11-01T15:15:18.928Z,100722.22
2022-11-01T15:17:53.124Z,100721.59
2022-11-01T15:20:21.172Z,100734.09
2022-11-01T15:22:50.066Z,100735.41
2022-11-01T15:25:22.440Z,100731.34
2022-11-01T15:27:50.837Z,100728.09
2022-11-01T15:30:23.381Z,100719.84
2022-11-01T15:33:15.926Z,100718.03
2022-11-01T15:35:43.803Z,100722.78
2022-11-01T15:38:20.829Z,100715.38
2022-11-01T15:40:50.244Z,100714.88
2022-11-01T15:43:19.901Z,100715.34
2022-11-01T15:45:48.978Z,100717.09
2022-11-01T15:48:21.631Z,100707.22
2022-11-01T15:50:52.259Z,100709.19
2022-11-01T15:53:23.131Z,100707.34
2022-11-01T15:55:53.268Z,100714.19
2022-11-01T15:58:24.028Z,100705.81
2022-11-01T16:00:53.291Z,100715.25
2022-11-01T16:03:25.257Z,100702.72
2022-11-01T16:05:56.973Z,100700.44
2022-11-01T16:08:29.672Z,100712.19
2022-11-01T16:10:57.364Z,100704.91
2022-11-01T16:13:25.098Z,100702.56
2022-11-01T16:16:03.781Z,100717.66
2022-11-01T16:18:36.387Z,100715.00
2022-11-01T16:21:06.195Z,100724.19
2022-11-01T16:23:33.912Z,100713.63
2022-11-01T16:26:02.677Z,100704.13
2022-11-01T16:28:32.376Z,100719.88
2022-11-01T16:31:00.130Z,100716.34
2022-11-01T16:33:35.501Z,100722.72
2022-11-01T16:36:06.208Z,100712.44
2022-11-01T16:38:40.844Z,100729.38
2022-11-01T16:41:17.982Z,100741.75
2022-11-01T16:43:45.997Z,100730.00
2022-11-01T16:46:13.762Z,100731.41
2022-11-01T16:48:53.158Z,100743.78
2022-11-01T16:51:24.911Z,100734.09
2022-11-01T16:53:52.713Z,100744.63
2022-11-01T16:56:36.231Z,100749.09
2022-11-01T16:59:07.694Z,100749.94
2022-11-01T17:01:36.590Z,100754.63
2022-11-01T17:04:05.275Z,100779.19
2022-11-01T17:06:39.114Z,100754.19
2022-11-01T17:09:11.774Z,100764.38
2022-11-01T17:11:39.588Z,100770.19
2022-11-01T17:14:07.311Z,100758.72
2022-11-01T17:16:35.197Z,100758.94
2022-11-01T17:19:03.132Z,100769.41
2022-11-01T17:21:32.451Z,100782.81
2022-11-01T17:24:01.468Z,100776.38
2022-11-01T17:26:29.184Z,100788.44
2022-11-01T17:28:56.815Z,100777.03
2022-11-01T17:31:25.027Z,100782.59
2022-11-01T17:33:52.663Z,100775.41
2022-11-01T17:36:20.344Z,100771.28
2022-11-01T17:38:50.260Z,100776.50
2022-11-01T17:41:21.030Z,100774.53
2022-11-01T17:43:48.722Z,100766.41
2022-11-01T17:46:18.525Z,100757.03
2022-11-01T17:48:46.159Z,100751.66
2022-11-01T17:51:13.871Z,100738.19
2022-11-01T17:53:42.150Z,100751.47
2022-11-01T17:56:09.835Z,100754.03
2022-11-01T17:58:38.844Z,100763.72
2022-11-01T18:01:08.829Z,100759.91
2022-11-01T18:03:37.117Z,100749.63
2022-11-01T18:06:05.358Z,100764.03
2022-11-01T18:08:34.832Z,100754.47
2022-11-01T18:11:07.284Z,100751.00
2022-11-01T18:13:44.257Z,100751.03
2022-11-01T18:16:21.089Z,100747.41
2022-11-01T18:19:10.035Z,100758.75
2022-11-01T18:21:45.734Z,100773.78
2022-11-01T18:24:22.207Z,100740.94
2022-11-01T18:26:51.240Z,100753.03
2022-11-01T18:29:23.505Z,100735.44
2022-11-01T18:31:58.422Z,100745.19
2022-11-01T18:34:32.008Z,100749.63
2022-11-01T18:37:02.824Z,100760.13
2022-11-01T18:39:36.327Z,100758.53
2022-11-01T18:42:07.155Z,100764.59
2022-11-01T18:44:36.224Z,100778.06
2022-11-01T18:47:07.534Z,100770.84
2022-11-01T18:49:35.230Z,100765.53
2022-11-01T18:52:02.915Z,100762.34
2022-11-01T18:54:31.606Z,100764.06
2022-11-01T18:57:07.703Z,100763.84
2022-11-01T18:59:39.160Z,100764.47
2022-11-01T19:02:14.468Z,100763.31
2022-11-01T19:04:43.641Z,100755.78
2022-11-01T19:07:13.496Z,100755.38
2022-11-01T19:09:43.875Z,100758.97
2022-11-01T19:12:16.604Z,100752.59
2022-11-01T19:14:46.302Z,100757.06
2022-11-01T19:17:20.841Z,100772.66
2022-11-01T19:19:48.491Z,100780.78
2022-11-01T19:22:37.950Z,100767.44
2022-11-01T19:25:17.613Z,100767.25
2022-11-01T19:27:45.454Z,100761.09
2022-11-01T19:30:24.536Z,100770.50
2022-11-01T19:32:54.094Z,100768.31
2022-11-01T19:35:22.574Z,100760.03
2022-11-01T19:37:51.792Z,100770.00
2022-11-01T19:40:27.826Z,100756.94
2022-11-01T19:42:56.008Z,100761.94
2022-11-01T19:45:32.641Z,100748.78
2022-11-01T19:48:02.231Z,100755.56
2022-11-01T19:50:39.368Z,100767.66
2022-11-01T19:53:16.897Z,100769.56
2022-11-01T19:55:49.971Z,100753.63
2022-11-01T19:58:39.055Z,100772.13
2022-11-01T20:01:33.360Z,100763.31
2022-11-01T20:04:03.439Z,100757.28
2022-11-01T20:06:35.261Z,100757.06
2022-11-01T20:09:05.291Z,100758.88
2022-11-01T20:11:33.544Z,100756.00
2022-11-01T20:14:01.662Z,100770.84
2022-11-01T20:16:30.878Z,100767.97
2022-11-01T20:18:58.570Z,100770.44
2022-11-01T20:21:26.801Z,100775.31
2022-11-01T20:23:54.526Z,100760.47
2022-11-01T20:26:22.203Z,100763.19
2022-11-01T20:28:50.095Z,100766.72
2022-11-01T20:31:18.555Z,100785.06
2022-11-01T20:33:47.643Z,100759.19
2022-11-01T20:36:15.313Z,100766.59
2022-11-01T20:38:43.076Z,100779.66
2022-11-01T20:41:10.731Z,100754.81
2022-11-01T20:43:38.460Z,100772.44
2022-11-01T20:46:06.461Z,100762.16
2022-11-01T20:48:34.173Z,100775.75
2022-11-01T20:51:04.452Z,100778.06
2022-11-01T20:53:32.137Z,100769.78
2022-11-01T20:55:59.897Z,100747.84
2022-11-01T20:58:27.921Z,100754.94
2022-11-01T21:00:56.303Z,100751.31
2022-11-01T21:03:28.561Z,100743.28
2022-11-01T21:05:56.192Z,100752.91
2022-11-01T21:08:26.104Z,100762.06
2022-11-01T21:10:56.245Z,100751.97
2022-11-01T21:13:26.324Z,100757.47
2022-11-01T21:15:55.049Z,100761.53
2022-11-01T21:18:34.634Z,100714.66
2022-11-01T21:21:46.418Z,100746.47
2022-11-01T21:24:33.987Z,100751.34
2022-11-01T21:27:17.715Z,100745.59
2022-11-01T21:29:47.265Z,100746.78
2022-11-01T21:32:27.051Z,100759.41
2022-11-01T21:34:55.089Z,100751.97
2022-11-01T21:37:23.404Z,100748.44
2022-11-01T21:40:01.572Z,100757.66
2022-11-01T21:42:33.474Z,100753.84
2022-11-01T21:45:01.164Z,100729.50
2022-11-01T21:47:31.198Z,100748.66
2022-11-01T21:49:58.880Z,100739.13
2022-11-01T21:52:26.651Z,100743.56
2022-11-01T21:54:55.656Z,100751.72
2022-11-01T21:57:23.319Z,100754.50
2022-11-01T21:59:51.866Z,100755.50
2022-11-01T22:02:19.547Z,100727.78
2022-11-01T22:04:47.311Z,100746.34
2022-11-01T22:07:14.968Z,100754.88
2022-11-01T22:09:42.631Z,100757.94
2022-11-01T22:12:11.650Z,100739.00
2022-11-01T22:14:39.441Z,100740.31
2022-11-01T22:17:07.101Z,100729.25
2022-11-01T22:19:34.805Z,100738.34
2022-11-01T22:22:02.563Z,100732.75
2022-11-01T22:24:30.939Z,100743.41
2022-11-01T22:26:59.002Z,100738.53
2022-11-01T22:29:28.019Z,100734.75
2022-11-01T22:31:55.652Z,100726.44
2022-11-01T22:34:23.374Z,100721.16
2022-11-01T22:36:51.129Z,100714.81
2022-11-01T22:39:21.284Z,100718.44
2022-11-01T22:41:49.332Z,100730.56
2022-11-01T22:44:20.244Z,100732.81
2022-11-01T22:46:55.205Z,100715.16
2022-11-01T22:49:28.119Z,100711.13
2022-11-01T22:51:57.481Z,100727.72
2022-11-01T22:57:16.952Z,100722.03
2022-11-01T22:59:47.072Z,100726.63
2022-11-01T23:02:33.602Z,100732.94
2022-11-01T23:05:21.466Z,100733.56
2022-11-01T23:07:50.416Z,100719.84
2022-11-01T23:10:33.409Z,100720.06
2022-11-01T23:13:25.075Z,100737.53
2022-11-01T23:15:52.863Z,100724.47
2022-11-01T23:18:22.602Z,100713.81
2022-11-01T23:20:56.109Z,100710.63
2022-11-01T23:23:24.204Z,100710.22
2022-11-01T23:25:52.590Z,100684.47
2022-11-01T23:28:21.992Z,100709.56
2022-11-01T23:30:49.943Z,100689.16
2022-11-01T23:33:19.251Z,100688.72
2022-11-01T23:35:52.007Z,100694.28
2022-11-01T23:38:21.446Z,100696.75
2022-11-01T23:40:50.852Z,100700.63
2022-11-01T23:43:25.411Z,100694.28
2022-11-01T23:45:53.248Z,100691.81
2022-11-01T23:48:21.468Z,100683.00
2022-11-01T23:50:49.790Z,100679.22
2022-11-01T23:53:18.353Z,100682.00
2022-11-01T23:55:48.767Z,100697.03
2022-11-01T23:58:19.426Z,100679.56
